sensor_id;sensor_type;location;lat;lon;timestamp;P1;durP1;ratioP1;P2;durP2;ratioP2
25946;SDS011;13745;51.470;9.894;2024-02-26T00:00:59;5.13;;;3.70;;
25946;SDS011;13745;51.470;9.894;2024-02-26T00:03:44;5.25;;;3.90;;
25946;SDS011;13745;51.470;9.894;2024-02-26T00:06:31;4.93;;;4.10;;
25946;SDS011;13745;51.470;9.894;2024-02-26T00:09:16;4.97;;;3.88;;
25946;SDS011;13745;51.470;9.894;2024-02-26T00:12:03;4.60;;;3.47;;
25946;SDS011;13745;51.470;9.894;2024-02-26T00:14:48;4.80;;;3.67;;
25946;SDS011;13745;51.470;9.894;2024-02-26T00:17:33;6.50;;;3.97;;
25946;SDS011;13745;51.470;9.894;2024-02-26T00:20:18;4.13;;;3.25;;
25946;SDS011;13745;51.470;9.894;2024-02-26T00:23:04;4.53;;;3.58;;
25946;SDS011;13745;51.470;9.894;2024-02-26T00:25:49;4.40;;;3.53;;
25946;SDS011;13745;51.470;9.894;2024-02-26T00:28:35;4.70;;;3.85;;
25946;SDS011;13745;51.470;9.894;2024-02-26T00:31:20;5.28;;;3.47;;
25946;SDS011;13745;51.470;9.894;2024-02-26T00:34:05;6.15;;;4.63;;
25946;SDS011;13745;51.470;9.894;2024-02-26T00:36:50;5.25;;;4.70;;
25946;SDS011;13745;51.470;9.894;2024-02-26T00:39:36;6.75;;;4.70;;
25946;SDS011;13745;51.470;9.894;2024-02-26T00:42:21;5.57;;;5.05;;
25946;SDS011;13745;51.470;9.894;2024-02-26T00:45:08;6.40;;;5.18;;
25946;SDS011;13745;51.470;9.894;2024-02-26T00:47:53;5.88;;;4.90;;
25946;SDS011;13745;51.470;9.894;2024-02-26T00:50:39;7.50;;;5.45;;
25946;SDS011;13745;51.470;9.894;2024-02-26T00:53:24;8.30;;;5.40;;
25946;SDS011;13745;51.470;9.894;2024-02-26T00:56:09;6.82;;;4.85;;
25946;SDS011;13745;51.470;9.894;2024-02-26T00:58:54;5.05;;;4.53;;
25946;SDS011;13745;51.470;9.894;2024-02-26T01:01:41;7.88;;;5.90;;
25946;SDS011;13745;51.470;9.894;2024-02-26T01:04:26;4.78;;;4.28;;
25946;SDS011;13745;51.470;9.894;2024-02-26T01:07:11;7.45;;;4.30;;
25946;SDS011;13745;51.470;9.894;2024-02-26T01:09:56;4.72;;;3.53;;
25946;SDS011;13745;51.470;9.894;2024-02-26T01:12:41;4.53;;;4.03;;
25946;SDS011;13745;51.470;9.894;2024-02-26T01:15:26;3.78;;;3.38;;
25946;SDS011;13745;51.470;9.894;2024-02-26T01:18:13;4.72;;;3.35;;
25946;SDS011;13745;51.470;9.894;2024-02-26T01:20:58;5.07;;;3.47;;
25946;SDS011;13745;51.470;9.894;2024-02-26T01:23:43;4.05;;;3.42;;
25946;SDS011;13745;51.470;9.894;2024-02-26T01:26:28;5.72;;;3.08;;
25946;SDS011;13745;51.470;9.894;2024-02-26T01:29:14;4.50;;;3.90;;
25946;SDS011;13745;51.470;9.894;2024-02-26T01:31:59;3.90;;;3.22;;
25946;SDS011;13745;51.470;9.894;2024-02-26T01:34:45;4.80;;;3.08;;
25946;SDS011;13745;51.470;9.894;2024-02-26T01:37:31;4.05;;;3.08;;
25946;SDS011;13745;51.470;9.894;2024-02-26T01:40:16;3.72;;;3.38;;
25946;SDS011;13745;51.470;9.894;2024-02-26T01:43:03;6.00;;;3.65;;
25946;SDS011;13745;51.470;9.894;2024-02-26T01:45:49;5.30;;;3.33;;
25946;SDS011;13745;51.470;9.894;2024-02-26T01:48:34;5.13;;;3.38;;
25946;SDS011;13745;51.470;9.894;2024-02-26T01:51:21;4.53;;;2.97;;
25946;SDS011;13745;51.470;9.894;2024-02-26T01:54:07;5.00;;;3.30;;
25946;SDS011;13745;51.470;9.894;2024-02-26T01:56:53;3.72;;;3.17;;
25946;SDS011;13745;51.470;9.894;2024-02-26T01:59:39;4.70;;;3.10;;
25946;SDS011;13745;51.470;9.894;2024-02-26T02:02:25;3.22;;;2.50;;
25946;SDS011;13745;51.470;9.894;2024-02-26T02:05:11;4.00;;;2.72;;
25946;SDS011;13745;51.470;9.894;2024-02-26T02:07:58;4.13;;;2.70;;
25946;SDS011;13745;51.470;9.894;2024-02-26T02:10:43;6.15;;;3.72;;
25946;SDS011;13745;51.470;9.894;2024-02-26T02:13:31;3.83;;;3.05;;
25946;SDS011;13745;51.470;9.894;2024-02-26T02:16:16;5.15;;;3.00;;
25946;SDS011;13745;51.470;9.894;2024-02-26T02:19:01;4.75;;;3.10;;
25946;SDS011;13745;51.470;9.894;2024-02-26T02:21:48;3.15;;;2.85;;
25946;SDS011;13745;51.470;9.894;2024-02-26T02:24:33;4.70;;;2.88;;
25946;SDS011;13745;51.470;9.894;2024-02-26T02:27:18;3.53;;;2.95;;
25946;SDS011;13745;51.470;9.894;2024-02-26T02:30:05;3.88;;;2.92;;
25946;SDS011;13745;51.470;9.894;2024-02-26T02:32:52;4.22;;;3.28;;
25946;SDS011;13745;51.470;9.894;2024-02-26T02:35:38;5.00;;;2.85;;
25946;SDS011;13745;51.470;9.894;2024-02-26T02:38:25;4.30;;;3.30;;
25946;SDS011;13745;51.470;9.894;2024-02-26T02:41:10;5.03;;;3.15;;
25946;SDS011;13745;51.470;9.894;2024-02-26T02:43:56;7.22;;;4.30;;
25946;SDS011;13745;51.470;9.894;2024-02-26T02:46:41;4.70;;;2.67;;
25946;SDS011;13745;51.470;9.894;2024-02-26T02:49:26;2.95;;;2.60;;
25946;SDS011;13745;51.470;9.894;2024-02-26T02:52:11;3.63;;;2.80;;
25946;SDS011;13745;51.470;9.894;2024-02-26T02:54:58;3.63;;;2.72;;
25946;SDS011;13745;51.470;9.894;2024-02-26T02:57:43;4.28;;;3.15;;
25946;SDS011;13745;51.470;9.894;2024-02-26T03:00:28;3.83;;;2.78;;
25946;SDS011;13745;51.470;9.894;2024-02-26T03:03:13;5.68;;;2.80;;
25946;SDS011;13745;51.470;9.894;2024-02-26T03:05:58;6.10;;;4.35;;
25946;SDS011;13745;51.470;9.894;2024-02-26T03:08:43;4.45;;;3.13;;
25946;SDS011;13745;51.470;9.894;2024-02-26T03:11:30;5.15;;;3.28;;
25946;SDS011;13745;51.470;9.894;2024-02-26T03:14:15;4.68;;;2.95;;
25946;SDS011;13745;51.470;9.894;2024-02-26T03:17:00;3.30;;;2.53;;
25946;SDS011;13745;51.470;9.894;2024-02-26T03:19:45;3.85;;;2.65;;
25946;SDS011;13745;51.470;9.894;2024-02-26T03:22:31;2.97;;;2.35;;
25946;SDS011;13745;51.470;9.894;2024-02-26T03:25:16;5.57;;;2.80;;
25946;SDS011;13745;51.470;9.894;2024-02-26T03:28:02;4.30;;;2.53;;
25946;SDS011;13745;51.470;9.894;2024-02-26T03:30:47;4.30;;;2.10;;
25946;SDS011;13745;51.470;9.894;2024-02-26T03:33:32;2.92;;;2.10;;
25946;SDS011;13745;51.470;9.894;2024-02-26T03:36:18;2.90;;;2.60;;
25946;SDS011;13745;51.470;9.894;2024-02-26T03:39:05;4.03;;;2.50;;
25946;SDS011;13745;51.470;9.894;2024-02-26T03:41:51;3.33;;;2.35;;
25946;SDS011;13745;51.470;9.894;2024-02-26T03:44:37;3.35;;;2.85;;
25946;SDS011;13745;51.470;9.894;2024-02-26T03:47:22;3.08;;;2.60;;
25946;SDS011;13745;51.470;9.894;2024-02-26T03:50:08;4.35;;;3.00;;
25946;SDS011;13745;51.470;9.894;2024-02-26T03:52:53;3.60;;;2.72;;
25946;SDS011;13745;51.470;9.894;2024-02-26T03:55:38;3.92;;;3.00;;
25946;SDS011;13745;51.470;9.894;2024-02-26T03:58:25;3.33;;;2.50;;
25946;SDS011;13745;51.470;9.894;2024-02-26T04:01:11;4.40;;;2.80;;
25946;SDS011;13745;51.470;9.894;2024-02-26T04:03:57;3.63;;;2.78;;
25946;SDS011;13745;51.470;9.894;2024-02-26T04:06:44;6.70;;;2.63;;
25946;SDS011;13745;51.470;9.894;2024-02-26T04:09:30;3.20;;;2.33;;
25946;SDS011;13745;51.470;9.894;2024-02-26T04:12:16;3.78;;;2.70;;
25946;SDS011;13745;51.470;9.894;2024-02-26T04:15:02;3.55;;;3.00;;
25946;SDS011;13745;51.470;9.894;2024-02-26T04:17:49;5.07;;;3.95;;
25946;SDS011;13745;51.470;9.894;2024-02-26T04:20:34;6.40;;;3.50;;
25946;SDS011;13745;51.470;9.894;2024-02-26T04:23:19;3.80;;;3.28;;
25946;SDS011;13745;51.470;9.894;2024-02-26T04:26:04;4.28;;;3.35;;
25946;SDS011;13745;51.470;9.894;2024-02-26T04:28:50;3.80;;;2.80;;
25946;SDS011;13745;51.470;9.894;2024-02-26T04:31:35;3.63;;;3.28;;
25946;SDS011;13745;51.470;9.894;2024-02-26T04:34:24;4.28;;;3.83;;
25946;SDS011;13745;51.470;9.894;2024-02-26T04:37:09;6.45;;;4.20;;
25946;SDS011;13745;51.470;9.894;2024-02-26T04:39:54;4.65;;;4.20;;
25946;SDS011;13745;51.470;9.894;2024-02-26T04:42:39;6.18;;;4.55;;
25946;SDS011;13745;51.470;9.894;2024-02-26T04:45:24;9.20;;;6.40;;
25946;SDS011;13745;51.470;9.894;2024-02-26T04:48:09;8.35;;;6.50;;
25946;SDS011;13745;51.470;9.894;2024-02-26T04:50:55;12.95;;;5.75;;
25946;SDS011;13745;51.470;9.894;2024-02-26T04:53:41;5.57;;;4.63;;
25946;SDS011;13745;51.470;9.894;2024-02-26T04:56:26;5.78;;;4.45;;
25946;SDS011;13745;51.470;9.894;2024-02-26T04:59:11;6.32;;;4.50;;
25946;SDS011;13745;51.470;9.894;2024-02-26T05:01:56;6.30;;;4.18;;
25946;SDS011;13745;51.470;9.894;2024-02-26T05:04:41;4.55;;;3.58;;
25946;SDS011;13745;51.470;9.894;2024-02-26T05:07:27;4.22;;;3.38;;
25946;SDS011;13745;51.470;9.894;2024-02-26T05:10:12;6.05;;;3.70;;
25946;SDS011;13745;51.470;9.894;2024-02-26T05:12:57;4.38;;;2.88;;
25946;SDS011;13745;51.470;9.894;2024-02-26T05:15:42;3.45;;;2.80;;
25946;SDS011;13745;51.470;9.894;2024-02-26T05:18:28;4.13;;;3.00;;
25946;SDS011;13745;51.470;9.894;2024-02-26T05:21:13;7.93;;;3.10;;
25946;SDS011;13745;51.470;9.894;2024-02-26T05:23:59;4.60;;;2.70;;
25946;SDS011;13745;51.470;9.894;2024-02-26T05:26:45;4.28;;;3.05;;
25946;SDS011;13745;51.470;9.894;2024-02-26T05:29:30;3.55;;;2.78;;
25946;SDS011;13745;51.470;9.894;2024-02-26T05:32:16;4.35;;;2.72;;
25946;SDS011;13745;51.470;9.894;2024-02-26T05:35:01;3.65;;;2.67;;
25946;SDS011;13745;51.470;9.894;2024-02-26T05:37:47;7.03;;;2.63;;
25946;SDS011;13745;51.470;9.894;2024-02-26T05:40:33;3.63;;;2.70;;
25946;SDS011;13745;51.470;9.894;2024-02-26T05:43:18;3.47;;;2.40;;
25946;SDS011;13745;51.470;9.894;2024-02-26T05:46:03;3.65;;;2.90;;
25946;SDS011;13745;51.470;9.894;2024-02-26T05:48:49;5.03;;;3.08;;
25946;SDS011;13745;51.470;9.894;2024-02-26T05:51:35;3.80;;;3.10;;
25946;SDS011;13745;51.470;9.894;2024-02-26T05:54:20;3.53;;;3.05;;
25946;SDS011;13745;51.470;9.894;2024-02-26T05:57:06;3.55;;;3.08;;
25946;SDS011;13745;51.470;9.894;2024-02-26T05:59:51;4.20;;;3.53;;
25946;SDS011;13745;51.470;9.894;2024-02-26T06:02:37;3.90;;;3.20;;
25946;SDS011;13745;51.470;9.894;2024-02-26T06:05:22;6.13;;;4.35;;
25946;SDS011;13745;51.470;9.894;2024-02-26T06:08:07;13.98;;;6.93;;
25946;SDS011;13745;51.470;9.894;2024-02-26T06:10:52;42.40;;;19.08;;
25946;SDS011;13745;51.470;9.894;2024-02-26T06:13:38;15.35;;;9.43;;
25946;SDS011;13745;51.470;9.894;2024-02-26T06:16:23;11.43;;;8.35;;
25946;SDS011;13745;51.470;9.894;2024-02-26T06:19:08;8.68;;;6.60;;
25946;SDS011;13745;51.470;9.894;2024-02-26T06:21:53;10.20;;;5.78;;
25946;SDS011;13745;51.470;9.894;2024-02-26T06:24:38;9.65;;;6.25;;
25946;SDS011;13745;51.470;9.894;2024-02-26T06:27:23;8.35;;;5.85;;
25946;SDS011;13745;51.470;9.894;2024-02-26T06:30:10;9.23;;;6.35;;
25946;SDS011;13745;51.470;9.894;2024-02-26T06:32:56;8.73;;;6.22;;
25946;SDS011;13745;51.470;9.894;2024-02-26T06:35:41;8.77;;;5.90;;
25946;SDS011;13745;51.470;9.894;2024-02-26T06:38:26;10.45;;;6.10;;
25946;SDS011;13745;51.470;9.894;2024-02-26T06:41:11;7.88;;;5.65;;
25946;SDS011;13745;51.470;9.894;2024-02-26T06:43:56;9.82;;;5.95;;
25946;SDS011;13745;51.470;9.894;2024-02-26T06:46:43;9.30;;;7.00;;
25946;SDS011;13745;51.470;9.894;2024-02-26T06:49:28;10.25;;;7.00;;
25946;SDS011;13745;51.470;9.894;2024-02-26T06:52:13;10.27;;;7.28;;
25946;SDS011;13745;51.470;9.894;2024-02-26T06:54:59;8.85;;;6.45;;
25946;SDS011;13745;51.470;9.894;2024-02-26T06:57:44;9.13;;;6.93;;
25946;SDS011;13745;51.470;9.894;2024-02-26T07:00:29;9.48;;;7.00;;
25946;SDS011;13745;51.470;9.894;2024-02-26T07:03:15;10.98;;;7.65;;
25946;SDS011;13745;51.470;9.894;2024-02-26T07:06:00;19.15;;;11.68;;
25946;SDS011;13745;51.470;9.894;2024-02-26T07:08:45;13.77;;;9.48;;
25946;SDS011;13745;51.470;9.894;2024-02-26T07:11:30;17.77;;;9.77;;
25946;SDS011;13745;51.470;9.894;2024-02-26T07:14:16;15.73;;;10.30;;
25946;SDS011;13745;51.470;9.894;2024-02-26T07:17:00;16.52;;;10.32;;
25946;SDS011;13745;51.470;9.894;2024-02-26T07:19:47;21.60;;;12.80;;
25946;SDS011;13745;51.470;9.894;2024-02-26T07:22:32;18.08;;;10.60;;
25946;SDS011;13745;51.470;9.894;2024-02-26T07:25:17;13.40;;;9.15;;
25946;SDS011;13745;51.470;9.894;2024-02-26T07:28:03;11.50;;;8.45;;
25946;SDS011;13745;51.470;9.894;2024-02-26T07:30:48;12.77;;;7.93;;
25946;SDS011;13745;51.470;9.894;2024-02-26T07:33:33;11.30;;;7.40;;
25946;SDS011;13745;51.470;9.894;2024-02-26T07:36:19;12.48;;;8.45;;
25946;SDS011;13745;51.470;9.894;2024-02-26T07:39:05;15.65;;;9.57;;
25946;SDS011;13745;51.470;9.894;2024-02-26T07:41:50;14.73;;;9.25;;
25946;SDS011;13745;51.470;9.894;2024-02-26T07:44:36;12.57;;;8.27;;
25946;SDS011;13745;51.470;9.894;2024-02-26T07:47:21;15.77;;;10.30;;
25946;SDS011;13745;51.470;9.894;2024-02-26T07:50:07;18.55;;;11.25;;
25946;SDS011;13745;51.470;9.894;2024-02-26T07:52:54;17.58;;;12.02;;
25946;SDS011;13745;51.470;9.894;2024-02-26T07:55:39;16.30;;;11.07;;
25946;SDS011;13745;51.470;9.894;2024-02-26T07:58:24;19.50;;;12.50;;
25946;SDS011;13745;51.470;9.894;2024-02-26T08:01:09;21.83;;;12.90;;
25946;SDS011;13745;51.470;9.894;2024-02-26T08:03:57;24.48;;;14.38;;
25946;SDS011;13745;51.470;9.894;2024-02-26T08:06:42;22.15;;;13.55;;
25946;SDS011;13745;51.470;9.894;2024-02-26T08:09:29;20.85;;;13.25;;
25946;SDS011;13745;51.470;9.894;2024-02-26T08:12:14;24.67;;;14.35;;
25946;SDS011;13745;51.470;9.894;2024-02-26T08:15:00;26.27;;;14.82;;
25946;SDS011;13745;51.470;9.894;2024-02-26T08:17:45;22.75;;;14.35;;
25946;SDS011;13745;51.470;9.894;2024-02-26T08:20:31;25.83;;;14.23;;
25946;SDS011;13745;51.470;9.894;2024-02-26T08:23:17;23.20;;;13.32;;
25946;SDS011;13745;51.470;9.894;2024-02-26T08:26:03;26.20;;;14.80;;
25946;SDS011;13745;51.470;9.894;2024-02-26T08:28:50;25.80;;;15.43;;
25946;SDS011;13745;51.470;9.894;2024-02-26T08:31:36;19.92;;;13.27;;
25946;SDS011;13745;51.470;9.894;2024-02-26T08:34:21;22.40;;;12.57;;
25946;SDS011;13745;51.470;9.894;2024-02-26T08:37:06;22.33;;;12.95;;
25946;SDS011;13745;51.470;9.894;2024-02-26T08:39:51;19.60;;;12.65;;
25946;SDS011;13745;51.470;9.894;2024-02-26T08:42:37;19.38;;;11.73;;
25946;SDS011;13745;51.470;9.894;2024-02-26T08:45:22;17.02;;;10.82;;
25946;SDS011;13745;51.470;9.894;2024-02-26T08:48:08;16.60;;;10.73;;
25946;SDS011;13745;51.470;9.894;2024-02-26T08:50:53;17.15;;;11.02;;
25946;SDS011;13745;51.470;9.894;2024-02-26T08:53:38;20.05;;;11.70;;
25946;SDS011;13745;51.470;9.894;2024-02-26T08:56:24;17.15;;;12.02;;
25946;SDS011;13745;51.470;9.894;2024-02-26T08:59:10;16.90;;;11.27;;
25946;SDS011;13745;51.470;9.894;2024-02-26T09:01:55;15.60;;;10.63;;
25946;SDS011;13745;51.470;9.894;2024-02-26T09:04:40;13.88;;;9.35;;
25946;SDS011;13745;51.470;9.894;2024-02-26T09:07:25;13.05;;;9.13;;
25946;SDS011;13745;51.470;9.894;2024-02-26T09:10:10;11.98;;;8.70;;
25946;SDS011;13745;51.470;9.894;2024-02-26T09:12:55;10.30;;;8.32;;
25946;SDS011;13745;51.470;9.894;2024-02-26T09:15:41;10.95;;;7.97;;
25946;SDS011;13745;51.470;9.894;2024-02-26T09:18:26;11.00;;;8.90;;
25946;SDS011;13745;51.470;9.894;2024-02-26T09:21:12;14.85;;;9.48;;
25946;SDS011;13745;51.470;9.894;2024-02-26T09:23:57;12.45;;;9.00;;
25946;SDS011;13745;51.470;9.894;2024-02-26T09:26:42;11.15;;;8.25;;
25946;SDS011;13745;51.470;9.894;2024-02-26T09:29:27;10.77;;;8.38;;
25946;SDS011;13745;51.470;9.894;2024-02-26T09:32:13;10.68;;;7.25;;
25946;SDS011;13745;51.470;9.894;2024-02-26T09:34:59;13.02;;;7.72;;
25946;SDS011;13745;51.470;9.894;2024-02-26T09:37:44;12.50;;;8.63;;
25946;SDS011;13745;51.470;9.894;2024-02-26T09:40:29;11.75;;;8.15;;
25946;SDS011;13745;51.470;9.894;2024-02-26T09:43:14;13.30;;;9.38;;
25946;SDS011;13745;51.470;9.894;2024-02-26T09:46:00;11.18;;;8.43;;
25946;SDS011;13745;51.470;9.894;2024-02-26T09:48:46;11.60;;;8.05;;
25946;SDS011;13745;51.470;9.894;2024-02-26T09:51:32;10.70;;;8.00;;
25946;SDS011;13745;51.470;9.894;2024-02-26T09:54:17;10.77;;;7.88;;
25946;SDS011;13745;51.470;9.894;2024-02-26T09:57:02;11.30;;;8.68;;
25946;SDS011;13745;51.470;9.894;2024-02-26T09:59:48;10.48;;;8.98;;
25946;SDS011;13745;51.470;9.894;2024-02-26T10:02:36;12.60;;;8.77;;
25946;SDS011;13745;51.470;9.894;2024-02-26T10:05:25;11.13;;;8.57;;
25946;SDS011;13745;51.470;9.894;2024-02-26T10:08:11;10.70;;;8.95;;
25946;SDS011;13745;51.470;9.894;2024-02-26T10:10:57;12.75;;;8.85;;
25946;SDS011;13745;51.470;9.894;2024-02-26T10:13:42;12.32;;;8.93;;
25946;SDS011;13745;51.470;9.894;2024-02-26T10:16:27;10.20;;;8.70;;
25946;SDS011;13745;51.470;9.894;2024-02-26T10:19:24;11.20;;;8.90;;
25946;SDS011;13745;51.470;9.894;2024-02-26T10:22:11;10.95;;;8.57;;
25946;SDS011;13745;51.470;9.894;2024-02-26T10:24:56;12.70;;;8.77;;
25946;SDS011;13745;51.470;9.894;2024-02-26T10:27:41;10.50;;;8.13;;
25946;SDS011;13745;51.470;9.894;2024-02-26T10:30:27;11.55;;;8.43;;
25946;SDS011;13745;51.470;9.894;2024-02-26T10:33:12;12.48;;;8.98;;
25946;SDS011;13745;51.470;9.894;2024-02-26T10:35:58;11.07;;;8.57;;
25946;SDS011;13745;51.470;9.894;2024-02-26T10:38:45;14.38;;;8.93;;
25946;SDS011;13745;51.470;9.894;2024-02-26T10:41:30;10.85;;;8.98;;
25946;SDS011;13745;51.470;9.894;2024-02-26T10:44:15;9.02;;;7.13;;
25946;SDS011;13745;51.470;9.894;2024-02-26T10:47:00;13.23;;;8.90;;
25946;SDS011;13745;51.470;9.894;2024-02-26T10:49:45;13.98;;;8.52;;
25946;SDS011;13745;51.470;9.894;2024-02-26T10:52:32;11.30;;;8.18;;
25946;SDS011;13745;51.470;9.894;2024-02-26T10:55:19;8.75;;;7.85;;
25946;SDS011;13745;51.470;9.894;2024-02-26T10:58:06;12.43;;;8.38;;
25946;SDS011;13745;51.470;9.894;2024-02-26T11:00:53;10.45;;;7.78;;
25946;SDS011;13745;51.470;9.894;2024-02-26T11:03:44;11.65;;;7.82;;
25946;SDS011;13745;51.470;9.894;2024-02-26T11:06:30;10.98;;;7.75;;
25946;SDS011;13745;51.470;9.894;2024-02-26T11:09:18;9.48;;;7.47;;
25946;SDS011;13745;51.470;9.894;2024-02-26T11:12:06;10.82;;;7.68;;
25946;SDS011;13745;51.470;9.894;2024-02-26T11:14:54;9.00;;;7.00;;
25946;SDS011;13745;51.470;9.894;2024-02-26T11:17:41;10.52;;;7.40;;
25946;SDS011;13745;51.470;9.894;2024-02-26T11:20:28;10.07;;;7.32;;
25946;SDS011;13745;51.470;9.894;2024-02-26T11:23:14;9.32;;;7.03;;
25946;SDS011;13745;51.470;9.894;2024-02-26T11:26:00;9.07;;;7.88;;
25946;SDS011;13745;51.470;9.894;2024-02-26T11:28:48;11.80;;;7.35;;
25946;SDS011;13745;51.470;9.894;2024-02-26T11:31:34;10.00;;;7.00;;
25946;SDS011;13745;51.470;9.894;2024-02-26T11:34:19;10.80;;;7.03;;
25946;SDS011;13745;51.470;9.894;2024-02-26T11:37:08;14.25;;;8.57;;
25946;SDS011;13745;51.470;9.894;2024-02-26T11:39:55;12.02;;;7.03;;
25946;SDS011;13745;51.470;9.894;2024-02-26T11:42:44;9.90;;;6.72;;
25946;SDS011;13745;51.470;9.894;2024-02-26T11:48:36;10.80;;;7.25;;
25946;SDS011;13745;51.470;9.894;2024-02-26T11:51:24;12.70;;;7.75;;
25946;SDS011;13745;51.470;9.894;2024-02-26T11:54:10;10.52;;;6.80;;
25946;SDS011;13745;51.470;9.894;2024-02-26T11:56:55;9.20;;;6.95;;
25946;SDS011;13745;51.470;9.894;2024-02-26T11:59:44;11.20;;;6.72;;
25946;SDS011;13745;51.470;9.894;2024-02-26T12:02:46;11.10;;;7.28;;
25946;SDS011;13745;51.470;9.894;2024-02-26T12:05:32;13.07;;;7.53;;
25946;SDS011;13745;51.470;9.894;2024-02-26T12:08:18;9.95;;;7.35;;
25946;SDS011;13745;51.470;9.894;2024-02-26T12:11:13;8.43;;;7.40;;
25946;SDS011;13745;51.470;9.894;2024-02-26T12:13:59;10.73;;;7.13;;
25946;SDS011;13745;51.470;9.894;2024-02-26T12:16:45;7.75;;;6.45;;
25946;SDS011;13745;51.470;9.894;2024-02-26T12:19:32;12.02;;;6.80;;
25946;SDS011;13745;51.470;9.894;2024-02-26T12:22:18;8.15;;;5.78;;
25946;SDS011;13745;51.470;9.894;2024-02-26T12:25:04;7.18;;;6.28;;
25946;SDS011;13745;51.470;9.894;2024-02-26T12:27:49;10.85;;;6.30;;
25946;SDS011;13745;51.470;9.894;2024-02-26T12:30:35;7.35;;;6.57;;
25946;SDS011;13745;51.470;9.894;2024-02-26T12:33:20;9.45;;;7.25;;
25946;SDS011;13745;51.470;9.894;2024-02-26T12:36:07;8.65;;;6.57;;
25946;SDS011;13745;51.470;9.894;2024-02-26T12:38:53;8.15;;;6.25;;
25946;SDS011;13745;51.470;9.894;2024-02-26T12:41:38;9.70;;;6.40;;
25946;SDS011;13745;51.470;9.894;2024-02-26T12:44:24;7.97;;;5.80;;
25946;SDS011;13745;51.470;9.894;2024-02-26T12:47:11;10.32;;;6.50;;
25946;SDS011;13745;51.470;9.894;2024-02-26T12:50:00;9.50;;;6.40;;
25946;SDS011;13745;51.470;9.894;2024-02-26T12:52:49;7.75;;;6.38;;
25946;SDS011;13745;51.470;9.894;2024-02-26T12:55:36;10.23;;;6.68;;
25946;SDS011;13745;51.470;9.894;2024-02-26T12:58:23;9.90;;;6.68;;
25946;SDS011;13745;51.470;9.894;2024-02-26T13:01:09;9.68;;;6.57;;
25946;SDS011;13745;51.470;9.894;2024-02-26T13:03:59;10.07;;;6.10;;
25946;SDS011;13745;51.470;9.894;2024-02-26T13:06:50;11.70;;;6.32;;
25946;SDS011;13745;51.470;9.894;2024-02-26T13:09:36;7.28;;;6.10;;
25946;SDS011;13745;51.470;9.894;2024-02-26T13:12:22;8.65;;;6.03;;
25946;SDS011;13745;51.470;9.894;2024-02-26T13:15:07;10.07;;;6.13;;
25946;SDS011;13745;51.470;9.894;2024-02-26T13:17:59;9.00;;;5.57;;
25946;SDS011;13745;51.470;9.894;2024-02-26T13:20:54;7.63;;;5.60;;
25946;SDS011;13745;51.470;9.894;2024-02-26T13:23:40;6.72;;;5.43;;
25946;SDS011;13745;51.470;9.894;2024-02-26T13:26:27;9.32;;;5.80;;
25946;SDS011;13745;51.470;9.894;2024-02-26T13:29:16;9.50;;;6.05;;
25946;SDS011;13745;51.470;9.894;2024-02-26T13:32:01;9.50;;;6.00;;
25946;SDS011;13745;51.470;9.894;2024-02-26T13:34:48;8.68;;;6.15;;
25946;SDS011;13745;51.470;9.894;2024-02-26T13:37:33;7.63;;;6.13;;
25946;SDS011;13745;51.470;9.894;2024-02-26T13:40:18;8.93;;;5.38;;
25946;SDS011;13745;51.470;9.894;2024-02-26T13:43:06;8.80;;;6.10;;
25946;SDS011;13745;51.470;9.894;2024-02-26T13:45:51;9.77;;;5.65;;
25946;SDS011;13745;51.470;9.894;2024-02-26T13:48:37;10.30;;;6.03;;
25946;SDS011;13745;51.470;9.894;2024-02-26T13:51:22;7.95;;;6.18;;
25946;SDS011;13745;51.470;9.894;2024-02-26T13:54:07;7.22;;;5.70;;
25946;SDS011;13745;51.470;9.894;2024-02-26T13:56:52;8.50;;;5.95;;
25946;SDS011;13745;51.470;9.894;2024-02-26T13:59:39;9.45;;;5.82;;
25946;SDS011;13745;51.470;9.894;2024-02-26T14:02:26;8.10;;;5.95;;
25946;SDS011;13745;51.470;9.894;2024-02-26T14:05:11;8.50;;;5.90;;
25946;SDS011;13745;51.470;9.894;2024-02-26T14:07:56;10.23;;;5.53;;
25946;SDS011;13745;51.470;9.894;2024-02-26T14:10:41;6.65;;;5.38;;
25946;SDS011;13745;51.470;9.894;2024-02-26T14:13:26;7.22;;;5.35;;
25946;SDS011;13745;51.470;9.894;2024-02-26T14:16:12;7.22;;;5.45;;
25946;SDS011;13745;51.470;9.894;2024-02-26T14:18:58;7.20;;;5.22;;
25946;SDS011;13745;51.470;9.894;2024-02-26T14:21:43;6.78;;;5.60;;
25946;SDS011;13745;51.470;9.894;2024-02-26T14:24:28;7.32;;;5.40;;
25946;SDS011;13745;51.470;9.894;2024-02-26T14:27:13;9.52;;;5.57;;
25946;SDS011;13745;51.470;9.894;2024-02-26T14:29:59;8.40;;;5.32;;
25946;SDS011;13745;51.470;9.894;2024-02-26T14:32:45;7.43;;;6.32;;
25946;SDS011;13745;51.470;9.894;2024-02-26T14:35:31;7.38;;;5.57;;
25946;SDS011;13745;51.470;9.894;2024-02-26T14:38:16;7.20;;;5.20;;
25946;SDS011;13745;51.470;9.894;2024-02-26T14:41:01;11.02;;;6.63;;
25946;SDS011;13745;51.470;9.894;2024-02-26T14:43:47;7.65;;;5.30;;
25946;SDS011;13745;51.470;9.894;2024-02-26T14:46:32;6.93;;;5.30;;
25946;SDS011;13745;51.470;9.894;2024-02-26T14:49:18;8.15;;;5.13;;
25946;SDS011;13745;51.470;9.894;2024-02-26T14:52:04;8.55;;;6.10;;
25946;SDS011;13745;51.470;9.894;2024-02-26T14:54:49;7.18;;;6.07;;
25946;SDS011;13745;51.470;9.894;2024-02-26T14:57:35;10.30;;;5.95;;
25946;SDS011;13745;51.470;9.894;2024-02-26T15:00:20;8.80;;;5.90;;
25946;SDS011;13745;51.470;9.894;2024-02-26T15:03:05;6.35;;;5.07;;
25946;SDS011;13745;51.470;9.894;2024-02-26T15:05:53;8.48;;;5.30;;
25946;SDS011;13745;51.470;9.894;2024-02-26T15:08:38;8.27;;;5.47;;
25946;SDS011;13745;51.470;9.894;2024-02-26T15:11:23;6.78;;;5.93;;
25946;SDS011;13745;51.470;9.894;2024-02-26T15:14:08;8.85;;;5.80;;
25946;SDS011;13745;51.470;9.894;2024-02-26T15:16:55;8.77;;;5.70;;
25946;SDS011;13745;51.470;9.894;2024-02-26T15:19:40;7.68;;;6.53;;
25946;SDS011;13745;51.470;9.894;2024-02-26T15:22:26;7.93;;;5.00;;
25946;SDS011;13745;51.470;9.894;2024-02-26T15:25:11;9.35;;;6.03;;
25946;SDS011;13745;51.470;9.894;2024-02-26T15:27:56;8.85;;;5.93;;
25946;SDS011;13745;51.470;9.894;2024-02-26T15:30:41;6.28;;;5.68;;
25946;SDS011;13745;51.470;9.894;2024-02-26T15:33:26;8.10;;;5.78;;
25946;SDS011;13745;51.470;9.894;2024-02-26T15:36:11;8.35;;;6.10;;
25946;SDS011;13745;51.470;9.894;2024-02-26T15:38:57;9.30;;;5.97;;
25946;SDS011;13745;51.470;9.894;2024-02-26T15:41:43;9.70;;;5.75;;
25946;SDS011;13745;51.470;9.894;2024-02-26T15:44:28;8.05;;;5.55;;
25946;SDS011;13745;51.470;9.894;2024-02-26T15:47:13;9.13;;;5.55;;
25946;SDS011;13745;51.470;9.894;2024-02-26T15:49:58;9.88;;;5.50;;
25946;SDS011;13745;51.470;9.894;2024-02-26T15:52:45;9.75;;;6.00;;
25946;SDS011;13745;51.470;9.894;2024-02-26T15:55:31;9.98;;;6.00;;
25946;SDS011;13745;51.470;9.894;2024-02-26T15:58:16;9.02;;;6.10;;
25946;SDS011;13745;51.470;9.894;2024-02-26T16:01:03;8.20;;;5.90;;
25946;SDS011;13745;51.470;9.894;2024-02-26T16:03:48;8.00;;;6.22;;
25946;SDS011;13745;51.470;9.894;2024-02-26T16:06:35;9.35;;;6.65;;
25946;SDS011;13745;51.470;9.894;2024-02-26T16:09:24;10.00;;;6.90;;
25946;SDS011;13745;51.470;9.894;2024-02-26T16:12:11;13.07;;;7.15;;
25946;SDS011;13745;51.470;9.894;2024-02-26T16:15:16;9.23;;;6.78;;
25946;SDS011;13745;51.470;9.894;2024-02-26T16:18:02;11.55;;;7.90;;
25946;SDS011;13745;51.470;9.894;2024-02-26T16:20:47;9.95;;;7.07;;
25946;SDS011;13745;51.470;9.894;2024-02-26T16:23:33;11.07;;;8.05;;
25946;SDS011;13745;51.470;9.894;2024-02-26T16:26:18;13.13;;;8.45;;
25946;SDS011;13745;51.470;9.894;2024-02-26T16:29:04;12.35;;;7.80;;
25946;SDS011;13745;51.470;9.894;2024-02-26T16:31:50;10.65;;;7.40;;
25946;SDS011;13745;51.470;9.894;2024-02-26T16:34:35;11.63;;;7.15;;